createdAt,value
2022-10-06T00:01:48.578Z,88.89
2022-10-06T00:06:40.258Z,88.93
2022-10-06T00:11:31.969Z,88.87
2022-10-06T00:16:24.420Z,89.13
2022-10-06T00:21:16.889Z,88.59
2022-10-06T00:26:17.750Z,88.44
2022-10-06T00:31:09.409Z,89.01
2022-10-06T00:36:01.170Z,89.04
2022-10-06T00:40:52.897Z,89.72
2022-10-06T00:45:48.802Z,89.69
2022-10-06T00:50:41.257Z,89.00
2022-10-06T00:55:33.006Z,89.72
2022-10-06T01:00:25.171Z,90.16
2022-10-06T01:05:25.782Z,90.00
2022-10-06T01:10:17.396Z,90.25
2022-10-06T01:15:10.385Z,90.44
2022-10-06T01:20:13.043Z,91.09
2022-10-06T01:25:06.716Z,90.75
2022-10-06T01:29:59.457Z,90.83
2022-10-06T01:34:51.052Z,91.23
2022-10-06T01:39:43.734Z,92.12
2022-10-06T01:44:35.965Z,91.93
2022-10-06T01:49:27.684Z,92.23
2022-10-06T01:54:19.293Z,92.07
2022-10-06T01:59:10.986Z,92.15
2022-10-06T02:04:02.615Z,92.48
2022-10-06T02:08:54.257Z,92.02
2022-10-06T02:13:46.678Z,92.87
2022-10-06T02:18:38.498Z,93.12
2022-10-06T02:23:30.885Z,93.80
2022-10-06T02:28:22.728Z,93.99
2022-10-06T02:33:14.376Z,94.08
2022-10-06T02:38:06.069Z,93.82
2022-10-06T02:42:58.378Z,94.54
2022-10-06T02:47:50.073Z,93.82
2022-10-06T02:52:42.942Z,94.32
2022-10-06T02:57:34.564Z,94.32
2022-10-06T03:02:26.302Z,94.09
2022-10-06T03:07:18.941Z,94.44
2022-10-06T03:12:10.584Z,94.81
2022-10-06T03:17:02.288Z,95.00
2022-10-06T03:21:53.956Z,94.46
2022-10-06T03:26:47.879Z,94.81
2022-10-06T03:31:40.327Z,94.56
2022-10-06T03:36:33.693Z,94.83
2022-10-06T03:41:28.101Z,95.03
2022-10-06T03:46:23.383Z,94.73
2022-10-06T03:51:21.601Z,94.95
2022-10-06T03:56:17.495Z,94.86
2022-10-06T04:01:23.488Z,94.63
2022-10-06T04:06:19.438Z,94.81
2022-10-06T04:11:21.486Z,94.96
2022-10-06T04:16:20.431Z,95.00
2022-10-06T04:21:13.306Z,94.58
2022-10-06T04:26:11.493Z,94.67
2022-10-06T04:31:03.029Z,94.56
2022-10-06T04:36:03.700Z,94.98
2022-10-06T04:40:57.417Z,94.88
2022-10-06T04:45:57.784Z,95.01
2022-10-06T04:50:57.261Z,95.51
2022-10-06T04:56:13.965Z,95.04
2022-10-06T05:01:32.950Z,95.59
2022-10-06T05:06:32.948Z,94.81
2022-10-06T05:11:26.106Z,95.35
2022-10-06T05:16:18.585Z,94.79
2022-10-06T05:21:16.173Z,94.80
2022-10-06T05:26:08.536Z,95.03
2022-10-06T05:31:00.152Z,94.79
2022-10-06T05:35:53.776Z,95.05
2022-10-06T05:40:45.349Z,95.00
2022-10-06T05:45:37.196Z,94.82
2022-10-06T05:50:28.829Z,95.15
2022-10-06T05:55:20.633Z,95.29
2022-10-06T06:00:12.678Z,95.11
2022-10-06T06:05:04.826Z,94.96
2022-10-06T06:09:56.484Z,95.02
2022-10-06T06:15:07.161Z,95.29
2022-10-06T06:19:58.883Z,95.11
2022-10-06T06:24:50.482Z,94.86
2022-10-06T06:29:42.250Z,95.15
2022-10-06T06:34:33.837Z,95.11
2022-10-06T06:39:25.636Z,95.42
2022-10-06T06:44:17.814Z,95.39
2022-10-06T06:49:12.102Z,95.25
2022-10-06T06:54:05.404Z,95.44
2022-10-06T06:58:57.085Z,95.55
2022-10-06T07:03:58.061Z,95.42
2022-10-06T07:08:50.346Z,95.13
2022-10-06T07:13:42.679Z,95.16
2022-10-06T07:18:53.254Z,94.57
2022-10-06T07:24:05.279Z,95.22
2022-10-06T07:29:01.061Z,95.35
2022-10-06T07:33:53.031Z,94.97
2022-10-06T07:38:44.658Z,93.43
2022-10-06T07:43:36.322Z,90.45
2022-10-06T07:48:27.867Z,88.13
2022-10-06T07:53:19.990Z,85.07
2022-10-06T07:58:13.923Z,82.78
2022-10-06T08:03:05.756Z,80.75
2022-10-06T08:07:58.222Z,78.85
2022-10-06T08:12:49.890Z,76.74
2022-10-06T08:17:41.887Z,75.91
2022-10-06T08:22:33.844Z,74.77
2022-10-06T08:27:28.888Z,73.58
2022-10-06T08:32:21.521Z,74.13
2022-10-06T08:37:20.153Z,72.65
2022-10-06T08:42:16.927Z,70.93
2022-10-06T08:47:20.650Z,71.61
2022-10-06T08:52:27.282Z,71.85
2022-10-06T08:57:34.160Z,70.01
2022-10-06T09:02:33.129Z,68.18
2022-10-06T09:08:02.726Z,66.86
2022-10-06T09:13:09.549Z,66.35
2022-10-06T09:18:10.738Z,64.67
2022-10-06T09:23:06.570Z,64.61
2022-10-06T09:27:59.955Z,64.58
2022-10-06T09:33:03.571Z,62.92
2022-10-06T09:38:08.627Z,64.66
2022-10-06T09:43:02.269Z,64.57
2022-10-06T09:47:54.045Z,67.19
2022-10-06T09:52:57.651Z,68.46
2022-10-06T09:57:52.336Z,70.12
2022-10-06T10:02:44.062Z,70.44
2022-10-06T10:07:36.559Z,70.24
2022-10-06T10:12:28.357Z,71.99
2022-10-06T10:17:33.560Z,70.86
2022-10-06T10:22:36.041Z,68.16
2022-10-06T10:27:52.264Z,66.09
2022-10-06T10:32:54.068Z,64.71
2022-10-06T10:38:04.066Z,65.40
2022-10-06T10:43:23.759Z,65.15
2022-10-06T10:48:47.513Z,63.91
2022-10-06T10:53:49.772Z,63.40
2022-10-06T10:58:43.740Z,64.02
2022-10-06T11:03:35.380Z,64.55
2022-10-06T11:08:38.122Z,64.41
2022-10-06T11:13:52.779Z,64.66
2022-10-06T11:19:02.782Z,63.16
2022-10-06T11:24:03.128Z,63.85
2022-10-06T11:29:16.257Z,64.13
2022-10-06T11:34:10.089Z,63.78
2022-10-06T11:39:15.718Z,64.58
2022-10-06T11:44:07.363Z,65.48
2022-10-06T11:49:29.771Z,66.26
2022-10-06T11:54:47.480Z,65.58
2022-10-06T11:59:39.217Z,64.45
2022-10-06T12:04:30.934Z,64.29
2022-10-06T12:09:46.147Z,64.29
2022-10-06T12:16:32.283Z,66.08
2022-10-06T12:20:08.056Z,65.12
2022-10-06T12:25:26.779Z,64.29
2022-10-06T12:30:21.274Z,63.97
2022-10-06T12:35:32.690Z,65.50
2022-10-06T12:40:48.421Z,65.58
2022-10-06T12:45:46.394Z,65.67
2022-10-06T12:50:39.234Z,66.18
2022-10-06T12:55:47.323Z,66.54
2022-10-06T13:00:43.513Z,66.81
2022-10-06T13:05:36.595Z,66.46
2022-10-06T13:10:29.626Z,67.62
2022-10-06T13:15:23.886Z,68.38
2022-10-06T13:21:02.840Z,68.36
2022-10-06T13:25:58.981Z,68.86
2022-10-06T13:30:52.476Z,69.97
2022-10-06T13:35:44.858Z,70.38
2022-10-06T13:40:45.241Z,71.02
2022-10-06T13:45:42.497Z,70.47
2022-10-06T13:50:34.796Z,71.43
2022-10-06T13:55:29.135Z,72.10
2022-10-06T14:00:26.656Z,71.54
2022-10-06T14:05:37.281Z,71.53
2022-10-06T14:10:55.394Z,71.63
2022-10-06T14:15:50.482Z,70.69
2022-10-06T14:20:46.396Z,71.23
2022-10-06T14:25:38.123Z,72.12
2022-10-06T14:30:29.803Z,71.77
2022-10-06T14:35:21.724Z,72.08
2022-10-06T14:40:13.833Z,71.50
2022-10-06T14:45:05.867Z,71.39
2022-10-06T14:49:57.534Z,71.36
2022-10-06T14:54:49.337Z,70.48
2022-10-06T14:59:41.116Z,71.20
2022-10-06T15:04:32.884Z,71.43
2022-10-06T15:09:24.861Z,72.09
2022-10-06T15:14:16.964Z,71.26
2022-10-06T15:19:09.274Z,72.26
2022-10-06T15:24:03.952Z,71.41
2022-10-06T15:29:01.872Z,71.58
2022-10-06T15:33:55.138Z,71.60
2022-10-06T15:38:47.384Z,72.69
2022-10-06T15:43:55.302Z,71.78
2022-10-06T15:48:46.964Z,71.90
2022-10-06T15:53:38.661Z,72.10
2022-10-06T15:58:30.577Z,72.10
2022-10-06T16:03:40.800Z,71.56
2022-10-06T16:08:34.871Z,71.93
2022-10-06T16:13:26.487Z,71.49
2022-10-06T16:18:18.269Z,72.40
2022-10-06T16:23:10.019Z,73.25
2022-10-06T16:28:01.735Z,72.06
2022-10-06T16:32:53.540Z,72.80
2022-10-06T16:37:49.761Z,72.69
2022-10-06T16:42:43.396Z,73.28
2022-10-06T16:47:35.044Z,73.87
2022-10-06T16:52:26.740Z,74.95
2022-10-06T16:57:18.505Z,76.51
2022-10-06T17:02:10.201Z,77.16
2022-10-06T17:07:02.291Z,77.75
2022-10-06T17:12:02.130Z,77.96
2022-10-06T17:16:58.656Z,77.89
2022-10-06T17:21:57.442Z,78.31
2022-10-06T17:26:50.351Z,78.78
2022-10-06T17:31:43.314Z,78.91
2022-10-06T17:36:38.047Z,79.50
2022-10-06T17:41:32.718Z,80.10
2022-10-06T17:46:25.614Z,79.81
2022-10-06T17:51:19.754Z,80.11
2022-10-06T17:56:11.972Z,80.21
2022-10-06T18:01:12.741Z,80.44
2022-10-06T18:06:05.545Z,80.75
2022-10-06T18:11:16.699Z,80.92
2022-10-06T18:16:22.586Z,81.09
2022-10-06T18:21:15.114Z,81.76
2022-10-06T18:26:06.779Z,81.92
2022-10-06T18:30:58.521Z,81.92
2022-10-06T18:36:14.591Z,81.96
2022-10-06T18:41:10.200Z,82.30
2022-10-06T18:46:22.514Z,82.51
2022-10-06T18:51:14.206Z,83.15
2022-10-06T18:56:07.266Z,83.46
2022-10-06T19:01:04.493Z,83.29
2022-10-06T19:05:56.214Z,83.33
2022-10-06T19:11:08.091Z,83.87
2022-10-06T19:16:00.058Z,84.21
2022-10-06T19:20:51.978Z,85.16
2022-10-06T19:25:44.133Z,85.78
2022-10-06T19:30:35.811Z,86.33
2022-10-06T19:35:27.557Z,86.45
2022-10-06T19:40:19.191Z,86.36
2022-10-06T19:45:12.076Z,86.36
2022-10-06T19:50:10.312Z,86.41
2022-10-06T19:55:03.918Z,86.41
2022-10-06T19:59:55.631Z,87.17
2022-10-06T20:04:47.240Z,87.41
2022-10-06T20:09:39.045Z,87.21
2022-10-06T20:14:30.744Z,87.40
2022-10-06T20:19:22.538Z,87.55
2022-10-06T20:24:24.853Z,87.59
2022-10-06T20:29:22.861Z,87.58
2022-10-06T20:34:16.047Z,87.43
2022-10-06T20:39:30.469Z,88.09
2022-10-06T20:44:22.652Z,88.87
2022-10-06T20:49:18.155Z,88.81
2022-10-06T20:54:11.325Z,89.05
2022-10-06T20:59:03.751Z,89.16
2022-10-06T21:03:55.435Z,88.91
2022-10-06T21:08:47.959Z,88.77
2022-10-06T21:13:40.845Z,88.17
2022-10-06T21:18:33.001Z,87.97
2022-10-06T21:23:24.641Z,87.62
2022-10-06T21:28:16.442Z,87.45
2022-10-06T21:33:08.299Z,87.64
2022-10-06T21:37:59.997Z,87.43
2022-10-06T21:42:51.674Z,87.00
2022-10-06T21:47:43.490Z,87.04
2022-10-06T21:52:35.246Z,86.69
2022-10-06T21:57:26.929Z,86.87
2022-10-06T22:02:18.623Z,86.58
2022-10-06T22:07:10.373Z,87.02
2022-10-06T22:12:02.196Z,86.91
2022-10-06T22:16:53.873Z,87.03
2022-10-06T22:21:48.024Z,87.73
2022-10-06T22:26:41.458Z,87.47
2022-10-06T22:31:33.527Z,87.88
2022-10-06T22:36:26.626Z,87.79
2022-10-06T22:41:18.550Z,87.17
2022-10-06T22:46:11.713Z,86.91
2022-10-06T22:51:04.443Z,86.06
2022-10-06T22:55:56.041Z,85.44
2022-10-06T23:00:47.712Z,85.12
2022-10-06T23:05:40.035Z,84.23
2022-10-06T23:10:33.512Z,83.83
2022-10-06T23:15:26.429Z,83.75
2022-10-06T23:20:20.365Z,83.47
2022-10-06T23:25:12.168Z,83.45
2022-10-06T23:30:05.891Z,83.33
2022-10-06T23:34:57.554Z,83.62
2022-10-06T23:39:49.224Z,83.68
2022-10-06T23:44:40.956Z,83.71
2022-10-06T23:49:35.328Z,84.14
2022-10-06T23:54:27.420Z,84.24
2022-10-06T23:59:22.933Z,84.42
